sensor_id;sensor_type;location;lat;lon;timestamp;pressure;altitude;pressure_sealevel;temperature;humidity
82951;BME280;72737;53.332;6.514;2024-03-07T00:00:34;102740.16;;;14.81;58.83
82951;BME280;72737;53.332;6.514;2024-03-07T00:03:00;102739.56;;;14.79;58.64
82951;BME280;72737;53.332;6.514;2024-03-07T00:05:26;102751.69;;;14.83;58.60
82951;BME280;72737;53.332;6.514;2024-03-07T00:07:52;102746.22;;;14.83;58.74
82951;BME280;72737;53.332;6.514;2024-03-07T00:10:18;102740.91;;;14.76;58.94
82951;BME280;72737;53.332;6.514;2024-03-07T00:12:44;102746.63;;;14.75;59.23
82951;BME280;72737;53.332;6.514;2024-03-07T00:15:11;102737.59;;;14.74;59.63
82951;BME280;72737;53.332;6.514;2024-03-07T00:17:38;102746.63;;;14.75;59.57
82951;BME280;72737;53.332;6.514;2024-03-07T00:20:06;102742.22;;;14.74;59.17
82951;BME280;72737;53.332;6.514;2024-03-07T00:22:42;102748.72;;;14.68;59.61
82951;BME280;72737;53.332;6.514;2024-03-07T00:25:08;102756.34;;;14.66;59.61
82951;BME280;72737;53.332;6.514;2024-03-07T00:27:35;102743.25;;;14.68;59.60
82951;BME280;72737;53.332;6.514;2024-03-07T00:30:07;102741.91;;;14.70;59.41
82951;BME280;72737;53.332;6.514;2024-03-07T00:32:34;102749.38;;;14.75;59.45
82951;BME280;72737;53.332;6.514;2024-03-07T00:35:05;102750.19;;;14.75;59.37
82951;BME280;72737;53.332;6.514;2024-03-07T00:37:31;102745.56;;;14.76;59.94
82951;BME280;72737;53.332;6.514;2024-03-07T00:39:57;102745.63;;;14.81;59.55
82951;BME280;72737;53.332;6.514;2024-03-07T00:42:22;102746.22;;;14.83;59.44
82951;BME280;72737;53.332;6.514;2024-03-07T00:44:48;102751.44;;;14.84;59.05
82951;BME280;72737;53.332;6.514;2024-03-07T00:47:16;102752.78;;;14.82;59.74
82951;BME280;72737;53.332;6.514;2024-03-07T00:49:43;102755.25;;;14.83;59.09
82951;BME280;72737;53.332;6.514;2024-03-07T00:52:10;102752.25;;;14.85;59.34
82951;BME280;72737;53.332;6.514;2024-03-07T00:54:36;102756.06;;;14.84;59.29
82951;BME280;72737;53.332;6.514;2024-03-07T00:57:01;102751.19;;;14.86;59.59
82951;BME280;72737;53.332;6.514;2024-03-07T00:59:27;102747.38;;;14.87;59.12
82951;BME280;72737;53.332;6.514;2024-03-07T01:01:52;102745.19;;;14.89;59.41
82951;BME280;72737;53.332;6.514;2024-03-07T01:04:18;102751.78;;;14.88;59.92
82951;BME280;72737;53.332;6.514;2024-03-07T01:06:43;102735.84;;;14.85;59.55
82951;BME280;72737;53.332;6.514;2024-03-07T01:09:09;102744.38;;;14.88;59.54
82951;BME280;72737;53.332;6.514;2024-03-07T01:11:42;102745.53;;;14.92;59.64
82951;BME280;72737;53.332;6.514;2024-03-07T01:14:10;102747.00;;;15.00;60.90
82951;BME280;72737;53.332;6.514;2024-03-07T01:16:35;102746.44;;;15.20;60.40
82951;BME280;72737;53.332;6.514;2024-03-07T01:19:02;102741.66;;;15.10;60.62
82951;BME280;72737;53.332;6.514;2024-03-07T01:21:31;102748.72;;;15.06;60.17
82951;BME280;72737;53.332;6.514;2024-03-07T01:23:57;102740.97;;;14.98;60.72
82951;BME280;72737;53.332;6.514;2024-03-07T01:26:22;102740.38;;;14.96;60.90
82951;BME280;72737;53.332;6.514;2024-03-07T01:28:49;102742.03;;;14.97;60.73
82951;BME280;72737;53.332;6.514;2024-03-07T01:31:14;102738.22;;;14.98;60.51
82951;BME280;72737;53.332;6.514;2024-03-07T01:33:39;102733.59;;;14.98;59.89
82951;BME280;72737;53.332;6.514;2024-03-07T01:36:05;102734.38;;;14.99;60.35
82951;BME280;72737;53.332;6.514;2024-03-07T01:38:30;102727.28;;;14.98;60.07
82951;BME280;72737;53.332;6.514;2024-03-07T01:40:56;102734.38;;;14.99;59.77
82951;BME280;72737;53.332;6.514;2024-03-07T01:43:21;102720.69;;;14.99;59.81
82951;BME280;72737;53.332;6.514;2024-03-07T01:45:47;102729.72;;;14.99;59.87
82951;BME280;72737;53.332;6.514;2024-03-07T01:48:22;102727.00;;;14.99;60.14
82951;BME280;72737;53.332;6.514;2024-03-07T01:50:50;102731.63;;;14.99;59.74
82951;BME280;72737;53.332;6.514;2024-03-07T01:53:16;102733.25;;;14.95;60.11
82951;BME280;72737;53.332;6.514;2024-03-07T01:55:42;102728.91;;;14.99;59.81
82951;BME280;72737;53.332;6.514;2024-03-07T01:58:12;102727.28;;;14.98;59.59
82951;BME280;72737;53.332;6.514;2024-03-07T02:00:39;102731.09;;;14.97;59.61
82951;BME280;72737;53.332;6.514;2024-03-07T02:03:05;102727.28;;;14.98;59.43
82951;BME280;72737;53.332;6.514;2024-03-07T02:05:33;102729.44;;;14.96;59.82
82951;BME280;72737;53.332;6.514;2024-03-07T02:07:59;102728.34;;;14.97;59.52
82951;BME280;72737;53.332;6.514;2024-03-07T02:10:24;102728.59;;;14.95;59.69
82951;BME280;72737;53.332;6.514;2024-03-07T02:12:51;102720.63;;;14.94;59.02
82951;BME280;72737;53.332;6.514;2024-03-07T02:15:16;102726.09;;;14.94;59.29
82951;BME280;72737;53.332;6.514;2024-03-07T02:17:42;102722.81;;;14.92;59.40
82951;BME280;72737;53.332;6.514;2024-03-07T02:20:09;102721.72;;;14.93;59.85
82951;BME280;72737;53.332;6.514;2024-03-07T02:22:37;102717.31;;;14.92;59.89
82951;BME280;72737;53.332;6.514;2024-03-07T02:25:02;102714.59;;;14.92;59.25
82951;BME280;72737;53.332;6.514;2024-03-07T02:27:28;102714.06;;;14.95;59.13
82951;BME280;72737;53.332;6.514;2024-03-07T02:29:54;102719.00;;;14.93;59.32
82951;BME280;72737;53.332;6.514;2024-03-07T02:32:22;102715.66;;;14.91;59.79
82951;BME280;72737;53.332;6.514;2024-03-07T02:34:48;102715.41;;;14.92;59.41
82951;BME280;72737;53.332;6.514;2024-03-07T02:37:14;102717.31;;;14.92;59.82
82951;BME280;72737;53.332;6.514;2024-03-07T02:39:40;102711.84;;;14.92;59.49
82951;BME280;72737;53.332;6.514;2024-03-07T02:42:06;102718.16;;;14.92;59.45
82951;BME280;72737;53.332;6.514;2024-03-07T02:44:32;102713.44;;;14.88;59.25
82951;BME280;72737;53.332;6.514;2024-03-07T02:46:58;102712.03;;;14.85;59.52
82951;BME280;72737;53.332;6.514;2024-03-07T02:49:23;102710.94;;;14.86;59.57
82951;BME280;72737;53.332;6.514;2024-03-07T02:51:49;102714.00;;;14.90;59.56
82951;BME280;72737;53.332;6.514;2024-03-07T02:54:15;102709.06;;;14.87;59.17
82951;BME280;72737;53.332;6.514;2024-03-07T02:56:40;102712.19;;;14.79;59.61
82951;BME280;72737;53.332;6.514;2024-03-07T02:59:05;102709.53;;;14.84;59.46
82951;BME280;72737;53.332;6.514;2024-03-07T03:01:34;102714.44;;;14.82;59.36
82951;BME280;72737;53.332;6.514;2024-03-07T03:03:59;102714.94;;;14.79;59.65
82951;BME280;72737;53.332;6.514;2024-03-07T03:06:25;102712.78;;;14.81;60.00
82951;BME280;72737;53.332;6.514;2024-03-07T03:08:52;102711.72;;;14.82;59.50
82951;BME280;72737;53.332;6.514;2024-03-07T03:11:20;102710.06;;;14.81;59.50
82951;BME280;72737;53.332;6.514;2024-03-07T03:13:46;102704.00;;;14.79;59.67
82951;BME280;72737;53.332;6.514;2024-03-07T03:16:13;102715.00;;;14.84;59.60
82951;BME280;72737;53.332;6.514;2024-03-07T03:18:38;102714.88;;;14.74;59.84
82951;BME280;72737;53.332;6.514;2024-03-07T03:21:04;102697.97;;;14.77;59.59
82951;BME280;72737;53.332;6.514;2024-03-07T03:23:29;102700.94;;;14.75;59.70
82951;BME280;72737;53.332;6.514;2024-03-07T03:25:56;102702.59;;;14.76;59.89
82951;BME280;72737;53.332;6.514;2024-03-07T03:28:24;102696.06;;;14.77;59.63
82951;BME280;72737;53.332;6.514;2024-03-07T03:30:50;102695.41;;;14.70;59.25
82951;BME280;72737;53.332;6.514;2024-03-07T03:33:17;102683.13;;;14.73;59.41
82951;BME280;72737;53.332;6.514;2024-03-07T03:35:42;102691.34;;;14.73;59.91
82951;BME280;72737;53.332;6.514;2024-03-07T03:38:09;102691.34;;;14.73;59.57
82951;BME280;72737;53.332;6.514;2024-03-07T03:40:35;102682.03;;;14.74;59.23
82951;BME280;72737;53.332;6.514;2024-03-07T03:43:01;102691.91;;;14.75;58.99
82951;BME280;72737;53.332;6.514;2024-03-07T03:45:27;102685.28;;;14.71;59.68
82951;BME280;72737;53.332;6.514;2024-03-07T03:47:53;102689.69;;;14.72;59.66
82951;BME280;72737;53.332;6.514;2024-03-07T03:50:19;102685.78;;;14.68;59.26
82951;BME280;72737;53.332;6.514;2024-03-07T03:52:44;102687.69;;;14.67;59.47
82951;BME280;72737;53.332;6.514;2024-03-07T03:55:10;102680.25;;;14.63;59.18
82951;BME280;72737;53.332;6.514;2024-03-07T03:57:38;102685.53;;;14.69;59.66
82951;BME280;72737;53.332;6.514;2024-03-07T04:00:06;102681.47;;;14.72;59.61
82951;BME280;72737;53.332;6.514;2024-03-07T04:02:38;102686.03;;;14.66;59.42
82951;BME280;72737;53.332;6.514;2024-03-07T04:05:04;102687.38;;;14.64;59.29
82951;BME280;72737;53.332;6.514;2024-03-07T04:07:29;102684.31;;;14.60;59.18
82951;BME280;72737;53.332;6.514;2024-03-07T04:09:56;102676.94;;;14.60;58.97
82951;BME280;72737;53.332;6.514;2024-03-07T04:12:23;102679.97;;;14.64;59.14
82951;BME280;72737;53.332;6.514;2024-03-07T04:14:52;102674.44;;;14.59;59.54
82951;BME280;72737;53.332;6.514;2024-03-07T04:17:18;102673.13;;;14.62;59.62
82951;BME280;72737;53.332;6.514;2024-03-07T04:19:46;102674.78;;;14.63;58.96
82951;BME280;72737;53.332;6.514;2024-03-07T04:22:11;102666.63;;;14.68;58.90
82951;BME280;72737;53.332;6.514;2024-03-07T04:24:38;102674.56;;;14.69;59.19
82951;BME280;72737;53.332;6.514;2024-03-07T04:27:06;102673.44;;;14.65;59.28
82951;BME280;72737;53.332;6.514;2024-03-07T04:29:35;102680.50;;;14.61;59.17
82951;BME280;72737;53.332;6.514;2024-03-07T04:32:01;102682.97;;;14.63;59.67
82951;BME280;72737;53.332;6.514;2024-03-07T04:34:27;102688.69;;;14.61;59.28
82951;BME280;72737;53.332;6.514;2024-03-07T04:36:56;102685.72;;;14.63;58.90
82951;BME280;72737;53.332;6.514;2024-03-07T04:39:22;102682.41;;;14.60;58.83
82951;BME280;72737;53.332;6.514;2024-03-07T04:41:58;102681.00;;;14.58;59.31
82951;BME280;72737;53.332;6.514;2024-03-07T04:44:25;102680.72;;;14.59;58.94
82951;BME280;72737;53.332;6.514;2024-03-07T04:46:51;102692.78;;;14.58;58.79
82951;BME280;72737;53.332;6.514;2024-03-07T04:49:24;102686.72;;;14.56;58.86
82951;BME280;72737;53.332;6.514;2024-03-07T04:51:51;102690.53;;;14.55;59.42
82951;BME280;72737;53.332;6.514;2024-03-07T04:54:20;102688.63;;;14.56;59.44
82951;BME280;72737;53.332;6.514;2024-03-07T04:56:47;102685.06;;;14.55;58.81
82951;BME280;72737;53.332;6.514;2024-03-07T04:59:13;102692.72;;;14.53;58.66
82951;BME280;72737;53.332;6.514;2024-03-07T05:01:40;102686.97;;;14.55;59.38
82951;BME280;72737;53.332;6.514;2024-03-07T05:04:06;102698.25;;;14.58;58.50
82951;BME280;72737;53.332;6.514;2024-03-07T05:06:32;102692.19;;;14.56;58.80
82951;BME280;72737;53.332;6.514;2024-03-07T05:09:04;102697.06;;;14.54;58.67
82951;BME280;72737;53.332;6.514;2024-03-07T05:11:30;102690.53;;;14.55;59.00
82951;BME280;72737;53.332;6.514;2024-03-07T05:13:56;102693.59;;;14.59;59.07
82951;BME280;72737;53.332;6.514;2024-03-07T05:16:26;102699.81;;;14.54;58.64
82951;BME280;72737;53.332;6.514;2024-03-07T05:18:53;102694.09;;;14.56;58.98
82951;BME280;72737;53.332;6.514;2024-03-07T05:21:19;102694.63;;;14.53;59.18
82951;BME280;72737;53.332;6.514;2024-03-07T05:24:01;102687.78;;;14.55;58.55
82951;BME280;72737;53.332;6.514;2024-03-07T05:26:28;102700.31;;;14.51;59.09
82951;BME280;72737;53.332;6.514;2024-03-07T05:29:01;102698.97;;;14.54;59.07
82951;BME280;72737;53.332;6.514;2024-03-07T05:31:33;102705.28;;;14.54;58.96
82951;BME280;72737;53.332;6.514;2024-03-07T05:34:00;102705.81;;;14.51;59.00
82951;BME280;72737;53.332;6.514;2024-03-07T05:36:32;102705.22;;;14.49;58.64
82951;BME280;72737;53.332;6.514;2024-03-07T05:38:58;102707.47;;;14.52;59.08
82951;BME280;72737;53.332;6.514;2024-03-07T05:41:24;102710.75;;;14.54;58.87
82951;BME280;72737;53.332;6.514;2024-03-07T05:43:53;102711.28;;;14.51;59.18
82951;BME280;72737;53.332;6.514;2024-03-07T05:46:19;102704.72;;;14.52;58.72
82951;BME280;72737;53.332;6.514;2024-03-07T05:48:45;102706.31;;;14.48;58.97
82951;BME280;72737;53.332;6.514;2024-03-07T05:51:15;102714.59;;;14.53;59.21
82951;BME280;72737;53.332;6.514;2024-03-07T05:53:41;102706.53;;;14.64;55.91
82951;BME280;72737;53.332;6.514;2024-03-07T05:56:08;102706.09;;;14.72;54.67
82951;BME280;72737;53.332;6.514;2024-03-07T05:58:33;102710.97;;;14.70;55.28
82951;BME280;72737;53.332;6.514;2024-03-07T06:00:59;102704.28;;;14.60;55.16
82951;BME280;72737;53.332;6.514;2024-03-07T06:03:24;102708.84;;;14.55;55.75
82951;BME280;72737;53.332;6.514;2024-03-07T06:05:51;102700.31;;;14.51;55.89
82951;BME280;72737;53.332;6.514;2024-03-07T06:08:18;102712.09;;;14.52;56.33
82951;BME280;72737;53.332;6.514;2024-03-07T06:10:43;102714.59;;;14.53;55.78
82951;BME280;72737;53.332;6.514;2024-03-07T06:13:10;102702.00;;;14.52;55.88
82951;BME280;72737;53.332;6.514;2024-03-07T06:15:37;102704.22;;;14.55;56.12
82951;BME280;72737;53.332;6.514;2024-03-07T06:18:03;102703.91;;;14.52;55.80
82951;BME280;72737;53.332;6.514;2024-03-07T06:20:29;102704.44;;;14.54;55.93
82951;BME280;72737;53.332;6.514;2024-03-07T06:22:56;102703.66;;;14.53;55.65
82951;BME280;72737;53.332;6.514;2024-03-07T06:25:22;102712.19;;;14.57;56.13
82951;BME280;72737;53.332;6.514;2024-03-07T06:28:00;102717.34;;;14.53;55.91
82951;BME280;72737;53.332;6.514;2024-03-07T06:30:34;102715.66;;;14.52;56.13
82951;BME280;72737;53.332;6.514;2024-03-07T06:33:01;102713.47;;;14.71;54.93
82951;BME280;72737;53.332;6.514;2024-03-07T06:35:26;102710.56;;;14.78;54.86
82951;BME280;72737;53.332;6.514;2024-03-07T06:37:52;102715.84;;;14.84;54.18
82951;BME280;72737;53.332;6.514;2024-03-07T06:40:17;102717.25;;;14.87;54.13
82951;BME280;72737;53.332;6.514;2024-03-07T06:42:46;102718.72;;;14.73;55.15
82951;BME280;72737;53.332;6.514;2024-03-07T06:45:12;102722.97;;;14.64;55.30
82951;BME280;72737;53.332;6.514;2024-03-07T06:47:37;102724.50;;;14.59;55.79
82951;BME280;72737;53.332;6.514;2024-03-07T06:50:04;102722.53;;;14.55;55.67
82951;BME280;72737;53.332;6.514;2024-03-07T06:52:35;102724.72;;;14.53;56.36
82951;BME280;72737;53.332;6.514;2024-03-07T06:55:02;102723.88;;;14.52;56.02
82951;BME280;72737;53.332;6.514;2024-03-07T06:57:29;102723.88;;;14.52;56.14
82951;BME280;72737;53.332;6.514;2024-03-07T06:59:54;102716.16;;;14.49;56.00
82951;BME280;72737;53.332;6.514;2024-03-07T07:02:20;102731.72;;;14.49;56.10
82951;BME280;72737;53.332;6.514;2024-03-07T07:04:46;102723.53;;;14.49;55.76
82951;BME280;72737;53.332;6.514;2024-03-07T07:07:13;102720.00;;;14.48;55.85
82951;BME280;72737;53.332;6.514;2024-03-07T07:09:40;102716.06;;;14.44;56.20
82951;BME280;72737;53.332;6.514;2024-03-07T07:12:06;102730.34;;;14.46;56.01
82951;BME280;72737;53.332;6.514;2024-03-07T07:14:33;102729.50;;;14.46;55.64
82951;BME280;72737;53.332;6.514;2024-03-07T07:17:01;102730.09;;;14.48;56.20
82951;BME280;72737;53.332;6.514;2024-03-07T07:19:27;102736.31;;;14.43;55.85
82951;BME280;72737;53.332;6.514;2024-03-07T07:21:52;102729.19;;;14.42;55.72
82951;BME280;72737;53.332;6.514;2024-03-07T07:24:22;102728.03;;;14.38;55.97
82951;BME280;72737;53.332;6.514;2024-03-07T07:26:49;102735.72;;;14.41;56.07
82951;BME280;72737;53.332;6.514;2024-03-07T07:29:16;102729.66;;;14.39;55.70
82951;BME280;72737;53.332;6.514;2024-03-07T07:31:42;102734.06;;;14.40;56.14
82951;BME280;72737;53.332;6.514;2024-03-07T07:34:08;102736.81;;;14.40;55.50
82951;BME280;72737;53.332;6.514;2024-03-07T07:36:33;102740.63;;;14.39;55.66
82951;BME280;72737;53.332;6.514;2024-03-07T07:38:59;102739.78;;;14.39;55.55
82951;BME280;72737;53.332;6.514;2024-03-07T07:41:26;102737.31;;;14.37;56.14
82951;BME280;72737;53.332;6.514;2024-03-07T07:43:53;102732.91;;;14.36;55.69
82951;BME280;72737;53.332;6.514;2024-03-07T07:46:19;102738.59;;;14.35;55.68
82951;BME280;72737;53.332;6.514;2024-03-07T07:48:45;102738.59;;;14.35;55.44
82951;BME280;72737;53.332;6.514;2024-03-07T07:51:10;102739.66;;;14.34;55.95
82951;BME280;72737;53.332;6.514;2024-03-07T07:53:36;102744.91;;;14.35;55.55
82951;BME280;72737;53.332;6.514;2024-03-07T07:56:02;102736.47;;;14.37;55.35
82951;BME280;72737;53.332;6.514;2024-03-07T07:58:28;102739.44;;;14.35;55.20
82951;BME280;72737;53.332;6.514;2024-03-07T08:00:54;102744.44;;;14.38;55.54
82951;BME280;72737;53.332;6.514;2024-03-07T08:03:21;102741.44;;;14.40;55.40
82951;BME280;72737;53.332;6.514;2024-03-07T08:05:47;102737.31;;;14.37;55.75
82951;BME280;72737;53.332;6.514;2024-03-07T08:08:22;102742.16;;;14.35;55.28
82951;BME280;72737;53.332;6.514;2024-03-07T08:10:48;102740.06;;;14.37;55.03
82951;BME280;72737;53.332;6.514;2024-03-07T08:13:14;102742.66;;;14.32;55.05
82951;BME280;72737;53.332;6.514;2024-03-07T08:15:40;102740.78;;;14.33;55.71
82951;BME280;72737;53.332;6.514;2024-03-07T08:18:06;102733.13;;;14.35;54.89
82951;BME280;72737;53.332;6.514;2024-03-07T08:20:34;102734.47;;;14.32;54.93
82951;BME280;72737;53.332;6.514;2024-03-07T08:23:00;102734.47;;;14.32;55.12
82951;BME280;72737;53.332;6.514;2024-03-07T08:25:28;102739.44;;;14.35;55.48
82951;BME280;72737;53.332;6.514;2024-03-07T08:27:56;102741.13;;;14.36;55.26
82951;BME280;72737;53.332;6.514;2024-03-07T08:30:22;102741.59;;;14.33;55.27
82951;BME280;72737;53.332;6.514;2024-03-07T08:32:53;102733.63;;;14.32;54.99
82951;BME280;72737;53.332;6.514;2024-03-07T08:35:20;102731.22;;;14.35;54.82
82951;BME280;72737;53.332;6.514;2024-03-07T08:37:46;102727.94;;;14.33;55.20
82951;BME280;72737;53.332;6.514;2024-03-07T08:40:19;102739.94;;;14.32;54.61
82951;BME280;72737;53.332;6.514;2024-03-07T08:42:50;102733.03;;;14.30;55.02
82951;BME280;72737;53.332;6.514;2024-03-07T08:45:22;102735.28;;;14.33;54.91
82951;BME280;72737;53.332;6.514;2024-03-07T08:47:50;102732.81;;;14.31;54.85
82951;BME280;72737;53.332;6.514;2024-03-07T08:50:18;102727.84;;;14.28;55.15
82951;BME280;72737;53.332;6.514;2024-03-07T08:52:47;102729.16;;;14.26;54.71
82951;BME280;72737;53.332;6.514;2024-03-07T08:55:15;102729.75;;;14.28;54.98
82951;BME280;72737;53.332;6.514;2024-03-07T08:57:44;102729.47;;;14.29;55.13
82951;BME280;72737;53.332;6.514;2024-03-07T09:00:12;102729.97;;;14.26;54.46
82951;BME280;72737;53.332;6.514;2024-03-07T09:02:52;102720.94;;;14.26;55.13
82951;BME280;72737;53.332;6.514;2024-03-07T09:05:18;102729.75;;;14.28;55.09
82951;BME280;72737;53.332;6.514;2024-03-07T09:07:45;102722.69;;;14.32;54.41
82951;BME280;72737;53.332;6.514;2024-03-07T09:10:15;102730.06;;;14.31;54.62
82951;BME280;72737;53.332;6.514;2024-03-07T09:12:41;102720.44;;;14.29;55.21
82951;BME280;72737;53.332;6.514;2024-03-07T09:15:07;102730.56;;;14.28;54.96
82951;BME280;72737;53.332;6.514;2024-03-07T09:17:32;102716.06;;;14.28;54.94
82951;BME280;72737;53.332;6.514;2024-03-07T09:19:58;102714.16;;;14.28;54.47
82951;BME280;72737;53.332;6.514;2024-03-07T09:22:24;102725.19;;;14.33;54.74
82951;BME280;72737;53.332;6.514;2024-03-07T09:24:49;102719.38;;;14.30;54.29
82951;BME280;72737;53.332;6.514;2024-03-07T09:27:14;102726.19;;;14.27;54.96
82951;BME280;72737;53.332;6.514;2024-03-07T09:29:41;102720.94;;;14.26;55.06
82951;BME280;72737;53.332;6.514;2024-03-07T09:32:06;102725.91;;;14.29;54.62
82951;BME280;72737;53.332;6.514;2024-03-07T09:34:34;102722.94;;;14.30;54.74
82951;BME280;72737;53.332;6.514;2024-03-07T09:37:01;102723.53;;;14.32;54.40
82951;BME280;72737;53.332;6.514;2024-03-07T09:39:26;102718.28;;;14.31;54.37
82951;BME280;72737;53.332;6.514;2024-03-07T09:41:52;102725.59;;;14.25;54.90
82951;BME280;72737;53.332;6.514;2024-03-07T09:44:21;102721.19;;;14.24;54.30
82951;BME280;72737;53.332;6.514;2024-03-07T09:46:58;102725.81;;;14.24;54.66
82951;BME280;72737;53.332;6.514;2024-03-07T09:49:28;102725.66;;;14.30;54.71
82951;BME280;72737;53.332;6.514;2024-03-07T09:51:55;102723.69;;;14.26;54.22
82951;BME280;72737;53.332;6.514;2024-03-07T09:54:22;102725.66;;;14.30;54.78
82951;BME280;72737;53.332;6.514;2024-03-07T09:56:54;102724.50;;;14.26;54.45
82951;BME280;72737;53.332;6.514;2024-03-07T09:59:24;102724.50;;;14.26;54.56
82951;BME280;72737;53.332;6.514;2024-03-07T10:01:54;102724.50;;;14.26;54.29
82951;BME280;72737;53.332;6.514;2024-03-07T10:04:37;102721.78;;;14.26;54.41
82951;BME280;72737;53.332;6.514;2024-03-07T10:07:07;102717.69;;;14.29;54.21
82951;BME280;72737;53.332;6.514;2024-03-07T10:09:38;102716.38;;;14.31;54.03
82951;BME280;72737;53.332;6.514;2024-03-07T10:12:06;102702.63;;;14.26;54.62
82951;BME280;72737;53.332;6.514;2024-03-07T10:14:38;102717.78;;;14.34;54.07
82951;BME280;72737;53.332;6.514;2024-03-07T10:17:04;102717.69;;;14.29;54.40
82951;BME280;72737;53.332;6.514;2024-03-07T10:19:30;102718.53;;;14.29;54.64
82951;BME280;72737;53.332;6.514;2024-03-07T10:21:56;102720.53;;;14.34;54.71
82951;BME280;72737;53.332;6.514;2024-03-07T10:24:27;102712.81;;;14.31;54.35
82951;BME280;72737;53.332;6.514;2024-03-07T10:26:53;102715.25;;;14.27;54.91
82951;BME280;72737;53.332;6.514;2024-03-07T10:29:21;102719.72;;;14.33;54.25
82951;BME280;72737;53.332;6.514;2024-03-07T10:31:48;102712.59;;;14.32;54.15
82951;BME280;72737;53.332;6.514;2024-03-07T10:34:14;102709.50;;;14.29;54.67
82951;BME280;72737;53.332;6.514;2024-03-07T10:36:43;102709.03;;;14.32;54.75
82951;BME280;72737;53.332;6.514;2024-03-07T10:39:10;102708.78;;;14.33;54.39
82951;BME280;72737;53.332;6.514;2024-03-07T10:41:50;102705.69;;;14.30;54.15
82951;BME280;72737;53.332;6.514;2024-03-07T10:44:20;102708.50;;;14.35;54.14
82951;BME280;72737;53.332;6.514;2024-03-07T10:46:52;102704.03;;;14.29;54.69
82951;BME280;72737;53.332;6.514;2024-03-07T10:49:21;102717.53;;;14.35;54.12
82951;BME280;72737;53.332;6.514;2024-03-07T10:52:13;102711.50;;;14.33;54.61
82951;BME280;72737;53.332;6.514;2024-03-07T12:12:08;102614.03;;;14.44;54.31
82951;BME280;72737;53.332;6.514;2024-03-07T12:14:34;102609.16;;;14.46;54.17
82951;BME280;72737;53.332;6.514;2024-03-07T12:17:01;102608.91;;;14.47;54.45
82951;BME280;72737;53.332;6.514;2024-03-07T12:19:32;102599.56;;;14.43;53.92
82951;BME280;72737;53.332;6.514;2024-03-07T12:22:02;102599.63;;;14.48;54.01
82951;BME280;72737;53.332;6.514;2024-03-07T12:24:30;102601.84;;;14.51;54.34
82951;BME280;72737;53.332;6.514;2024-03-07T12:27:12;102597.19;;;14.52;54.23
82951;BME280;72737;53.332;6.514;2024-03-07T12:29:42;102594.72;;;14.50;54.41
82951;BME280;72737;53.332;6.514;2024-03-07T12:32:12;102585.44;;;14.51;54.39
82951;BME280;72737;53.332;6.514;2024-03-07T12:34:42;102573.13;;;14.54;53.73
82951;BME280;72737;53.332;6.514;2024-03-07T12:37:11;102577.81;;;14.53;53.77
82951;BME280;72737;53.332;6.514;2024-03-07T12:39:41;102568.25;;;14.56;54.31
82951;BME280;72737;53.332;6.514;2024-03-07T12:42:18;102563.34;;;14.58;53.76
82951;BME280;72737;53.332;6.514;2024-03-07T12:44:45;102559.72;;;14.52;54.26
82951;BME280;72737;53.332;6.514;2024-03-07T12:47:16;102553.75;;;14.55;54.30
82951;BME280;72737;53.332;6.514;2024-03-07T12:49:43;102556.47;;;14.55;54.12
82951;BME280;72737;53.332;6.514;2024-03-07T12:52:09;102563.34;;;14.58;54.29
82951;BME280;72737;53.332;6.514;2024-03-07T12:54:35;102561.69;;;14.57;53.65
82951;BME280;72737;53.332;6.514;2024-03-07T12:57:09;102565.56;;;14.61;53.58
82951;BME280;72737;53.332;6.514;2024-03-07T12:59:36;102563.91;;;14.60;53.78
82951;BME280;72737;53.332;6.514;2024-03-07T13:02:09;102565.81;;;14.59;54.18
82951;BME280;72737;53.332;6.514;2024-03-07T13:04:37;102566.16;;;14.63;53.61
82951;BME280;72737;53.332;6.514;2024-03-07T13:07:06;102564.81;;;14.66;53.88
82951;BME280;72737;53.332;6.514;2024-03-07T13:09:33;102558.25;;;14.67;53.75
82951;BME280;72737;53.332;6.514;2024-03-07T13:11:58;102559.91;;;14.68;53.37
82951;BME280;72737;53.332;6.514;2024-03-07T13:14:26;102565.13;;;14.69;53.81
82951;BME280;72737;53.332;6.514;2024-03-07T13:17:05;102549.53;;;14.70;54.06
82951;BME280;72737;53.332;6.514;2024-03-07T13:19:32;102544.34;;;14.68;53.46
82951;BME280;72737;53.332;6.514;2024-03-07T13:21:58;102538.56;;;14.70;53.36
82951;BME280;72737;53.332;6.514;2024-03-07T13:24:25;102541.91;;;14.72;53.88
82951;BME280;72737;53.332;6.514;2024-03-07T13:26:50;102532.28;;;14.69;53.66
82951;BME280;72737;53.332;6.514;2024-03-07T13:29:16;102524.97;;;14.75;53.91
82951;BME280;72737;53.332;6.514;2024-03-07T13:31:44;102524.13;;;14.74;53.41
82951;BME280;72737;53.332;6.514;2024-03-07T13:34:11;102518.34;;;14.71;53.45
82951;BME280;72737;53.332;6.514;2024-03-07T13:36:41;102515.09;;;14.74;53.62
82951;BME280;72737;53.332;6.514;2024-03-07T13:39:08;102513.50;;;14.78;53.83
82951;BME280;72737;53.332;6.514;2024-03-07T13:41:46;102515.66;;;14.76;53.82
82951;BME280;72737;53.332;6.514;2024-03-07T13:44:14;102521.97;;;14.76;53.27
82951;BME280;72737;53.332;6.514;2024-03-07T13:46:39;102508.53;;;14.75;53.23
82951;BME280;72737;53.332;6.514;2024-03-07T13:49:05;102513.22;;;14.79;53.71
82951;BME280;72737;53.332;6.514;2024-03-07T13:51:38;102517.31;;;14.77;53.45
82951;BME280;72737;53.332;6.514;2024-03-07T13:54:12;102511.31;;;14.80;53.84
82951;BME280;72737;53.332;6.514;2024-03-07T13:57:13;102513.00;;;14.81;53.39
82951;BME280;72737;53.332;6.514;2024-03-07T14:11:21;102493.06;;;14.85;53.57
82951;BME280;72737;53.332;6.514;2024-03-07T14:17:10;102489.00;;;14.88;52.94
82951;BME280;72737;53.332;6.514;2024-03-07T14:25:37;102476.38;;;14.87;53.20
82951;BME280;72737;53.332;6.514;2024-03-07T14:30:51;102466.81;;;14.89;53.29
82951;BME280;72737;53.332;6.514;2024-03-07T14:33:46;102461.56;;;14.83;52.96